createdAt,value
2023-03-26T00:01:26.648Z,1.50
2023-03-26T00:03:57.668Z,2.00
2023-03-26T00:06:26.616Z,1.40
2023-03-26T00:08:53.511Z,1.70
2023-03-26T00:11:22.667Z,1.87
2023-03-26T00:13:49.185Z,1.60
2023-03-26T00:16:18.139Z,1.90
2023-03-26T00:18:44.878Z,1.93
2023-03-26T00:21:14.010Z,1.90
2023-03-26T00:23:41.508Z,2.10
2023-03-26T00:26:11.371Z,1.97
2023-03-26T00:28:40.438Z,2.13
2023-03-26T00:31:10.563Z,1.73
2023-03-26T00:33:40.681Z,1.80
2023-03-26T00:36:17.194Z,1.97
2023-03-26T00:38:44.742Z,1.90
2023-03-26T00:41:24.826Z,1.80
2023-03-26T00:43:56.759Z,1.77
2023-03-26T00:46:25.236Z,2.10
2023-03-26T00:48:51.932Z,2.00
2023-03-26T00:51:20.600Z,1.93
2023-03-26T00:53:49.075Z,2.40
2023-03-26T00:56:16.470Z,1.67
2023-03-26T00:58:43.374Z,1.60
2023-03-26T01:01:16.417Z,1.70
2023-03-26T01:04:00.682Z,1.50
2023-03-26T01:06:35.756Z,1.80
2023-03-26T01:09:14.051Z,1.60
2023-03-26T01:11:40.627Z,2.27
2023-03-26T01:14:11.815Z,1.50
2023-03-26T01:16:44.848Z,1.50
2023-03-26T01:19:22.767Z,1.50
2023-03-26T01:21:49.399Z,1.60
2023-03-26T01:24:16.132Z,1.50
2023-03-26T01:27:09.627Z,1.60
2023-03-26T01:30:03.751Z,1.80
2023-03-26T01:32:41.596Z,1.80
2023-03-26T01:35:22.254Z,1.30
2023-03-26T01:38:10.583Z,1.57
2023-03-26T01:40:42.899Z,1.53
2023-03-26T01:43:19.320Z,1.67
2023-03-26T01:45:49.482Z,1.50
2023-03-26T01:48:16.384Z,1.30
2023-03-26T01:50:43.322Z,1.50
2023-03-26T01:53:12.608Z,2.17
2023-03-26T01:56:18.648Z,1.83
2023-03-26T01:59:17.310Z,1.40
2023-03-26T02:01:54.707Z,1.60
2023-03-26T02:04:36.110Z,1.73
2023-03-26T02:07:09.212Z,1.60
2023-03-26T02:09:45.717Z,1.70
2023-03-26T02:12:14.552Z,2.10
2023-03-26T02:14:42.896Z,1.83
2023-03-26T02:17:10.847Z,2.03
2023-03-26T02:19:42.097Z,2.40
2023-03-26T02:22:15.506Z,2.03
2023-03-26T02:24:44.439Z,2.43
2023-03-26T02:27:12.323Z,2.70
2023-03-26T02:29:40.456Z,3.30
2023-03-26T02:32:13.475Z,2.60
2023-03-26T02:34:41.228Z,2.53
2023-03-26T02:37:08.333Z,2.60
2023-03-26T02:39:36.258Z,2.40
2023-03-26T02:42:10.824Z,1.90
2023-03-26T02:44:44.859Z,1.70
2023-03-26T02:47:11.293Z,2.00
2023-03-26T02:49:52.841Z,1.80
2023-03-26T02:52:45.346Z,1.87
2023-03-26T02:55:12.036Z,2.03
2023-03-26T02:57:41.151Z,1.67
2023-03-26T03:00:14.085Z,1.80
2023-03-26T03:02:59.280Z,1.60
2023-03-26T03:05:33.449Z,2.13
2023-03-26T03:08:14.517Z,1.60
2023-03-26T03:11:00.884Z,1.87
2023-03-26T03:13:39.596Z,1.57
2023-03-26T03:16:07.723Z,1.80
2023-03-26T03:18:34.240Z,1.50
2023-03-26T03:21:02.370Z,1.73
2023-03-26T03:23:28.799Z,2.00
2023-03-26T03:26:15.481Z,1.60
2023-03-26T03:28:45.591Z,1.93
2023-03-26T03:31:16.169Z,1.90
2023-03-26T03:33:43.357Z,2.00
2023-03-26T03:36:20.420Z,1.73
2023-03-26T03:38:50.673Z,1.70
2023-03-26T03:41:19.834Z,1.83
2023-03-26T03:43:47.072Z,1.47
2023-03-26T03:46:21.040Z,2.00
2023-03-26T03:48:49.868Z,2.30
2023-03-26T03:51:24.946Z,1.77
2023-03-26T03:53:59.870Z,1.70
2023-03-26T03:56:55.923Z,1.63
2023-03-26T03:59:38.645Z,1.70
2023-03-26T04:02:21.197Z,2.07
2023-03-26T04:04:57.459Z,1.83
2023-03-26T04:07:30.619Z,1.80
2023-03-26T04:10:09.887Z,1.53
2023-03-26T04:12:57.579Z,2.30
2023-03-26T04:15:41.041Z,1.57
2023-03-26T04:18:10.491Z,1.60
2023-03-26T04:20:38.636Z,1.97
2023-03-26T04:23:06.288Z,1.60
2023-03-26T04:25:33.192Z,1.60
2023-03-26T04:28:08.999Z,1.70
2023-03-26T04:30:45.583Z,1.83
2023-03-26T04:33:35.364Z,1.80
2023-03-26T04:36:03.591Z,1.70
2023-03-26T04:38:45.378Z,1.70
2023-03-26T04:41:15.060Z,2.00
2023-03-26T04:43:55.293Z,2.03
2023-03-26T04:46:35.976Z,1.97
2023-03-26T04:49:11.824Z,1.80
2023-03-26T04:51:41.816Z,1.70
2023-03-26T04:54:28.394Z,1.67
2023-03-26T04:57:05.492Z,1.97
2023-03-26T04:59:41.217Z,2.07
2023-03-26T05:02:12.951Z,1.93
2023-03-26T05:04:49.837Z,2.77
2023-03-26T05:07:20.468Z,2.33
2023-03-26T05:09:50.238Z,2.10
2023-03-26T05:12:22.289Z,2.13
2023-03-26T05:14:56.645Z,1.90
2023-03-26T05:17:41.497Z,2.10
2023-03-26T05:20:20.920Z,1.97
2023-03-26T05:22:49.556Z,1.87
2023-03-26T05:25:23.058Z,1.80
2023-03-26T05:27:49.544Z,1.87
2023-03-26T05:30:20.256Z,2.03
2023-03-26T05:32:51.840Z,1.83
2023-03-26T05:35:23.621Z,1.73
2023-03-26T05:37:51.406Z,1.87
2023-03-26T05:40:21.801Z,2.47
2023-03-26T05:42:55.090Z,1.87
2023-03-26T05:45:24.293Z,2.10
2023-03-26T05:47:54.108Z,2.60
2023-03-26T05:50:23.110Z,2.03
2023-03-26T05:52:51.088Z,2.30
2023-03-26T05:55:35.814Z,2.00
2023-03-26T05:58:20.729Z,2.13
2023-03-26T06:01:10.553Z,2.70
2023-03-26T06:03:55.802Z,2.53
2023-03-26T06:06:26.929Z,2.47
2023-03-26T06:09:02.382Z,2.20
2023-03-26T06:11:29.938Z,2.60
2023-03-26T06:13:56.406Z,2.30
2023-03-26T06:16:27.432Z,2.30
2023-03-26T06:19:14.967Z,1.80
2023-03-26T06:21:50.415Z,2.33
2023-03-26T06:24:22.966Z,2.23
2023-03-26T06:27:04.324Z,2.27
2023-03-26T06:29:30.786Z,2.27
2023-03-26T06:32:19.702Z,2.10
2023-03-26T06:37:28.578Z,2.33
2023-03-26T06:39:59.686Z,2.03
2023-03-26T06:43:08.301Z,2.27
2023-03-26T06:45:52.513Z,2.30
2023-03-26T06:48:42.743Z,2.93
2023-03-26T06:51:21.057Z,2.83
2023-03-26T06:54:06.083Z,2.10
2023-03-26T06:56:50.888Z,2.00
2023-03-26T06:59:55.827Z,2.07
2023-03-26T07:02:40.850Z,2.00
2023-03-26T07:05:26.173Z,2.07
2023-03-26T07:08:11.077Z,1.70
2023-03-26T07:10:56.206Z,2.00
2023-03-26T07:13:42.834Z,1.63
2023-03-26T07:16:27.760Z,1.67
2023-03-26T07:19:33.098Z,1.90
2023-03-26T07:22:00.896Z,2.20
2023-03-26T07:24:59.904Z,1.40
2023-03-26T07:28:08.043Z,1.57
2023-03-26T07:31:07.777Z,1.30
2023-03-26T07:33:58.741Z,1.50
2023-03-26T07:36:57.625Z,1.77
2023-03-26T07:39:51.102Z,1.40
2023-03-26T07:43:06.340Z,1.40
2023-03-26T07:45:54.303Z,1.00
2023-03-26T07:48:44.224Z,1.37
2023-03-26T07:51:32.913Z,1.20
2023-03-26T07:54:18.088Z,1.27
2023-03-26T07:57:26.010Z,1.10
2023-03-26T08:00:23.678Z,1.30
2023-03-26T08:03:07.858Z,1.67
2023-03-26T08:06:12.674Z,1.30
2023-03-26T08:09:09.744Z,1.20
2023-03-26T08:11:58.711Z,0.90
2023-03-26T08:14:43.561Z,1.23
2023-03-26T08:17:14.931Z,1.40
2023-03-26T08:19:44.762Z,1.27
2023-03-26T08:22:20.694Z,1.40
2023-03-26T08:24:59.329Z,1.30
2023-03-26T08:27:40.126Z,1.23
2023-03-26T08:30:10.786Z,1.00
2023-03-26T08:32:40.864Z,1.13
2023-03-26T08:35:11.449Z,1.30
2023-03-26T08:37:39.132Z,1.33
2023-03-26T08:40:06.716Z,1.00
2023-03-26T08:42:47.702Z,1.00
2023-03-26T08:45:36.526Z,0.80
2023-03-26T08:48:30.666Z,0.70
2023-03-26T08:51:10.506Z,0.90
2023-03-26T08:53:45.942Z,0.87
2023-03-26T08:56:32.278Z,0.70
2023-03-26T08:59:34.367Z,10.03
2023-03-26T09:02:27.055Z,1.17
2023-03-26T09:05:21.043Z,3.23
2023-03-26T09:08:02.829Z,1.10
2023-03-26T09:10:36.996Z,1.60
2023-03-26T09:13:15.643Z,0.90
2023-03-26T09:15:53.904Z,1.23
2023-03-26T09:18:38.926Z,0.87
2023-03-26T09:21:39.376Z,1.00
2023-03-26T09:24:27.433Z,1.13
2023-03-26T09:27:08.539Z,0.87
2023-03-26T09:29:37.681Z,1.00
2023-03-26T09:32:31.735Z,1.60
2023-03-26T09:35:32.714Z,1.50
2023-03-26T09:38:10.943Z,1.37
2023-03-26T09:40:42.399Z,1.33
2023-03-26T09:43:40.874Z,1.30
2023-03-26T09:46:25.912Z,1.10
2023-03-26T09:49:45.785Z,1.20
2023-03-26T09:52:44.242Z,1.10
2023-03-26T09:55:49.687Z,1.20
2023-03-26T09:58:49.775Z,1.00
2023-03-26T10:01:41.049Z,1.00
2023-03-26T10:04:38.530Z,0.90
2023-03-26T10:07:30.137Z,0.70
2023-03-26T10:10:06.855Z,0.87
2023-03-26T10:12:42.007Z,0.90
2023-03-26T10:15:34.797Z,0.60
2023-03-26T10:18:02.671Z,0.63
2023-03-26T10:21:01.674Z,0.50
2023-03-26T10:23:45.142Z,0.60
2023-03-26T10:26:17.446Z,0.60
2023-03-26T10:29:13.094Z,0.60
2023-03-26T10:31:58.695Z,0.60
2023-03-26T10:34:28.933Z,0.70
2023-03-26T10:37:36.204Z,0.50
2023-03-26T10:40:24.303Z,0.30
2023-03-26T10:43:03.008Z,0.57
2023-03-26T10:46:10.143Z,0.90
2023-03-26T10:48:50.881Z,0.30
2023-03-26T10:51:36.268Z,0.40
2023-03-26T10:54:34.954Z,0.57
2023-03-26T10:57:23.178Z,0.50
2023-03-26T10:59:50.276Z,0.40
2023-03-26T11:02:35.899Z,0.50
2023-03-26T11:05:17.541Z,0.60
2023-03-26T11:07:54.361Z,0.57
2023-03-26T11:10:35.247Z,0.43
2023-03-26T11:13:23.254Z,0.50
2023-03-26T11:15:56.719Z,0.50
2023-03-26T11:18:27.960Z,0.53
2023-03-26T11:21:19.075Z,0.60
2023-03-26T11:24:05.001Z,0.40
2023-03-26T11:26:52.790Z,1.43
2023-03-26T11:29:57.344Z,0.70
2023-03-26T11:32:28.959Z,0.50
2023-03-26T11:35:14.263Z,0.40
2023-03-26T11:37:40.937Z,0.57
2023-03-26T11:40:15.449Z,0.80
2023-03-26T11:42:43.587Z,0.80
2023-03-26T11:45:24.047Z,0.60
2023-03-26T11:47:54.754Z,0.67
2023-03-26T11:50:26.980Z,0.60
2023-03-26T11:53:12.375Z,2.40
2023-03-26T11:55:44.144Z,0.70
2023-03-26T11:58:26.002Z,0.70
2023-03-26T12:00:54.659Z,0.67
2023-03-26T12:03:21.612Z,0.53
2023-03-26T12:05:51.785Z,0.50
2023-03-26T12:08:28.146Z,0.40
2023-03-26T12:11:08.867Z,0.47
2023-03-26T12:13:50.690Z,0.80
2023-03-26T12:16:20.100Z,0.80
2023-03-26T12:19:03.451Z,0.57
2023-03-26T12:21:29.921Z,0.60
2023-03-26T12:24:01.991Z,0.70
2023-03-26T12:26:44.744Z,0.90
2023-03-26T12:29:13.744Z,0.67
2023-03-26T12:31:56.703Z,0.63
2023-03-26T12:34:36.351Z,0.50
2023-03-26T12:37:05.501Z,0.50
2023-03-26T12:40:09.731Z,0.90
2023-03-26T12:44:50.228Z,0.40
2023-03-26T12:45:28.526Z,0.60
2023-03-26T12:48:03.940Z,0.53
2023-03-26T12:50:44.781Z,0.60
2023-03-26T12:53:44.578Z,0.60
2023-03-26T12:56:36.095Z,0.50
2023-03-26T12:59:36.372Z,0.60
2023-03-26T13:02:35.629Z,0.50
2023-03-26T13:05:17.849Z,0.70
2023-03-26T13:08:23.338Z,0.80
2023-03-26T13:11:00.784Z,0.87
2023-03-26T13:13:46.158Z,0.47
2023-03-26T13:16:22.338Z,0.60
2023-03-26T13:19:23.421Z,0.77
2023-03-26T13:22:05.606Z,0.70
2023-03-26T13:24:34.990Z,0.90
2023-03-26T13:27:35.609Z,0.70
2023-03-26T13:30:22.717Z,0.60
2023-03-26T13:33:04.047Z,0.80
2023-03-26T13:35:43.971Z,0.60
2023-03-26T13:38:36.828Z,0.83
2023-03-26T13:41:30.012Z,0.60
2023-03-26T13:44:28.951Z,0.60
2023-03-26T13:47:03.294Z,0.70
2023-03-26T13:49:48.284Z,0.60
2023-03-26T13:52:17.687Z,0.80
2023-03-26T13:54:54.465Z,0.80
2023-03-26T13:57:40.101Z,0.60
2023-03-26T14:00:55.018Z,0.60
2023-03-26T14:03:41.107Z,0.83
2023-03-26T14:06:16.358Z,0.50
2023-03-26T14:08:46.933Z,0.50
2023-03-26T14:11:21.118Z,0.60
2023-03-26T14:14:10.135Z,0.70
2023-03-26T14:16:44.210Z,0.73
2023-03-26T14:19:50.000Z,0.80
2023-03-26T14:22:30.513Z,0.70
2023-03-26T14:25:19.984Z,0.60
2023-03-26T14:28:01.368Z,0.50
2023-03-26T14:30:51.089Z,0.70
2023-03-26T14:33:33.918Z,0.50
2023-03-26T14:36:18.400Z,0.40
2023-03-26T14:39:09.232Z,0.70
2023-03-26T14:41:56.504Z,0.50
2023-03-26T14:44:51.064Z,0.70
2023-03-26T14:47:18.990Z,0.60
2023-03-26T14:50:10.622Z,1.00
2023-03-26T14:52:50.190Z,1.60
2023-03-26T14:55:22.930Z,0.77
2023-03-26T14:58:09.271Z,0.80
2023-03-26T15:01:06.897Z,0.60
2023-03-26T15:03:51.918Z,0.90
2023-03-26T15:06:38.479Z,0.50
2023-03-26T15:09:39.166Z,0.30
2023-03-26T15:12:32.748Z,0.67
2023-03-26T15:15:54.049Z,0.50
2023-03-26T15:18:27.605Z,0.60
2023-03-26T15:21:06.224Z,0.93
2023-03-26T15:23:51.310Z,1.00
2023-03-26T15:26:27.437Z,0.60
2023-03-26T15:29:06.356Z,0.50
2023-03-26T15:31:47.571Z,0.40
2023-03-26T15:34:33.885Z,0.80
2023-03-26T15:37:17.098Z,0.60
2023-03-26T15:40:25.263Z,0.70
2023-03-26T15:43:06.478Z,0.47
2023-03-26T15:45:38.479Z,0.37
2023-03-26T15:48:11.784Z,0.50
2023-03-26T15:51:03.628Z,0.50
2023-03-26T15:53:50.534Z,0.40
2023-03-26T15:56:56.611Z,0.60
2023-03-26T15:59:54.264Z,0.50
2023-03-26T16:02:40.101Z,0.37
2023-03-26T16:05:21.613Z,0.40
2023-03-26T16:08:08.634Z,0.50
2023-03-26T16:10:56.477Z,0.50
2023-03-26T16:13:32.134Z,0.40
2023-03-26T16:16:04.743Z,0.50
2023-03-26T16:18:38.249Z,0.30
2023-03-26T16:21:30.880Z,0.30
2023-03-26T16:24:02.179Z,0.20
2023-03-26T16:26:31.712Z,0.10
2023-03-26T16:29:22.651Z,0.20
2023-03-26T16:32:07.521Z,0.40
2023-03-26T16:35:01.893Z,0.70
2023-03-26T16:37:50.696Z,0.70
2023-03-26T16:40:20.184Z,0.40
2023-03-26T16:43:03.268Z,0.60
2023-03-26T16:45:37.138Z,0.40
2023-03-26T16:48:21.485Z,0.80
2023-03-26T16:51:01.936Z,0.40
2023-03-26T16:53:46.202Z,0.80
2023-03-26T16:56:26.136Z,0.77
2023-03-26T16:58:56.102Z,0.80
2023-03-26T17:01:48.110Z,1.07
2023-03-26T17:04:23.342Z,1.10
2023-03-26T17:07:15.033Z,1.47
2023-03-26T17:10:18.850Z,1.03
2023-03-26T17:13:00.004Z,1.00
2023-03-26T17:15:36.468Z,1.10
2023-03-26T17:18:35.750Z,1.10
2023-03-26T17:21:16.232Z,1.00
2023-03-26T17:24:15.694Z,0.60
2023-03-26T17:26:56.332Z,0.60
2023-03-26T17:29:34.128Z,0.90
2023-03-26T17:32:11.491Z,1.10
2023-03-26T17:34:37.912Z,2.90
2023-03-26T17:37:32.145Z,1.60
2023-03-26T17:40:01.615Z,3.77
2023-03-26T17:42:32.711Z,2.00
2023-03-26T17:45:23.363Z,1.47
2023-03-26T17:47:58.747Z,0.97
2023-03-26T17:50:32.022Z,1.00
2023-03-26T17:53:02.037Z,1.50
2023-03-26T17:55:36.468Z,1.87
2023-03-26T17:58:22.198Z,1.60
2023-03-26T18:01:04.017Z,1.30
2023-03-26T18:03:36.103Z,1.10
2023-03-26T18:06:18.073Z,1.70
2023-03-26T18:09:25.213Z,2.63
2023-03-26T18:12:26.454Z,1.87
2023-03-26T18:15:23.763Z,3.53
2023-03-26T18:17:50.414Z,3.27
2023-03-26T18:20:26.366Z,1.40
2023-03-26T18:22:53.394Z,1.50
2023-03-26T18:25:27.116Z,2.60
2023-03-26T18:27:53.903Z,1.97
2023-03-26T18:30:23.452Z,0.93
2023-03-26T18:32:52.564Z,3.30
2023-03-26T18:35:21.483Z,1.50
2023-03-26T18:37:51.862Z,1.20
2023-03-26T18:40:21.311Z,1.23
2023-03-26T18:42:55.039Z,1.13
2023-03-26T18:45:51.601Z,0.80
2023-03-26T18:48:26.143Z,1.10
2023-03-26T18:50:56.445Z,1.10
2023-03-26T18:53:32.003Z,1.33
2023-03-26T18:55:58.564Z,1.10
2023-03-26T18:58:39.107Z,1.50
2023-03-26T19:01:17.164Z,1.10
2023-03-26T19:03:50.824Z,0.87
2023-03-26T19:06:17.711Z,0.83
2023-03-26T19:08:46.346Z,1.00
2023-03-26T19:11:16.838Z,0.90
2023-03-26T19:13:43.517Z,1.10
2023-03-26T19:16:24.821Z,1.00
2023-03-26T19:18:52.341Z,1.30
2023-03-26T19:21:23.144Z,0.90
2023-03-26T19:23:51.739Z,1.27
2023-03-26T19:26:19.030Z,1.20
2023-03-26T19:28:50.783Z,1.37
2023-03-26T19:31:33.042Z,1.40
2023-03-26T19:34:14.728Z,1.40
2023-03-26T19:36:59.467Z,1.70
2023-03-26T19:39:40.333Z,1.30
2023-03-26T19:42:11.359Z,1.40
2023-03-26T19:44:42.041Z,1.60
2023-03-26T19:47:17.364Z,1.57
2023-03-26T19:49:56.172Z,1.93
2023-03-26T19:52:27.626Z,1.57
2023-03-26T19:55:01.164Z,1.50
2023-03-26T19:57:32.237Z,1.50
2023-03-26T19:59:59.568Z,1.80
2023-03-26T20:02:27.405Z,1.43
2023-03-26T20:04:53.930Z,1.50
2023-03-26T20:07:35.862Z,1.53
2023-03-26T20:10:05.359Z,1.47
2023-03-26T20:12:32.071Z,1.60
2023-03-26T20:14:58.632Z,1.53
2023-03-26T20:17:25.216Z,1.50
2023-03-26T20:19:54.346Z,1.30
2023-03-26T20:22:20.790Z,1.20
2023-03-26T20:24:47.304Z,1.20
2023-03-26T20:27:14.432Z,1.10
2023-03-26T20:29:42.201Z,0.80
2023-03-26T20:32:27.389Z,0.87
2023-03-26T20:34:54.064Z,0.50
2023-03-26T20:37:20.534Z,0.57
2023-03-26T20:39:47.079Z,0.70
2023-03-26T20:42:15.436Z,0.60
2023-03-26T20:44:42.784Z,0.60
2023-03-26T20:47:12.622Z,0.63
2023-03-26T20:49:40.160Z,0.50
2023-03-26T20:52:06.676Z,0.60
2023-03-26T20:54:33.245Z,0.50
2023-03-26T20:56:59.888Z,0.50
2023-03-26T20:59:27.863Z,0.50
2023-03-26T21:01:56.567Z,0.40
2023-03-26T21:04:24.781Z,0.57
2023-03-26T21:06:55.111Z,0.63
2023-03-26T21:09:25.127Z,0.50
2023-03-26T21:12:09.665Z,0.70
2023-03-26T21:14:44.073Z,0.70
2023-03-26T21:17:16.108Z,0.70
2023-03-26T21:19:43.751Z,0.80
2023-03-26T21:22:25.677Z,0.67
2023-03-26T21:25:05.459Z,0.60
2023-03-26T21:27:51.526Z,0.50
2023-03-26T21:30:18.322Z,0.60
2023-03-26T21:32:46.149Z,0.50
2023-03-26T21:35:14.766Z,0.50
2023-03-26T21:37:45.563Z,0.60
2023-03-26T21:40:17.023Z,0.60
2023-03-26T21:42:53.412Z,0.40
2023-03-26T21:45:21.304Z,0.53
2023-03-26T21:47:48.533Z,0.60
2023-03-26T21:50:21.699Z,0.60
2023-03-26T21:52:48.851Z,0.60
2023-03-26T21:55:21.551Z,0.70
2023-03-26T21:58:11.843Z,0.60
2023-03-26T22:01:08.394Z,0.60
2023-03-26T22:03:50.771Z,0.90
2023-03-26T22:06:26.559Z,0.73
2023-03-26T22:08:53.235Z,0.70
2023-03-26T22:11:19.872Z,0.70
2023-03-26T22:13:46.621Z,0.60
2023-03-26T22:16:13.111Z,0.70
2023-03-26T22:18:39.603Z,0.50
2023-03-26T22:21:06.995Z,0.70
2023-03-26T22:23:38.148Z,0.57
2023-03-26T22:26:05.873Z,0.80
2023-03-26T22:28:32.399Z,0.77
2023-03-26T22:30:59.226Z,0.80
2023-03-26T22:33:26.631Z,0.70
2023-03-26T22:35:55.467Z,0.90
2023-03-26T22:38:21.938Z,0.80
2023-03-26T22:40:56.693Z,1.00
2023-03-26T22:43:23.715Z,1.00
2023-03-26T22:45:51.297Z,1.10
2023-03-26T22:48:18.264Z,1.10
2023-03-26T22:50:45.081Z,1.47
2023-03-26T22:53:11.922Z,1.50
2023-03-26T22:55:38.415Z,1.70
2023-03-26T22:58:04.859Z,1.57
2023-03-26T23:00:32.285Z,1.77
2023-03-26T23:03:00.378Z,2.37
2023-03-26T23:05:27.675Z,2.40
2023-03-26T23:07:54.117Z,2.30
2023-03-26T23:10:21.668Z,2.23
2023-03-26T23:12:48.586Z,2.60
2023-03-26T23:15:15.104Z,2.73
2023-03-26T23:17:41.614Z,2.87
2023-03-26T23:20:15.259Z,2.83
2023-03-26T23:22:43.019Z,2.80
2023-03-26T23:25:11.005Z,3.40
2023-03-26T23:27:37.640Z,3.20
2023-03-26T23:30:05.253Z,3.73
2023-03-26T23:32:31.792Z,3.97
2023-03-26T23:34:58.465Z,4.40
2023-03-26T23:37:24.938Z,4.63
2023-03-26T23:39:52.163Z,4.47
2023-03-26T23:42:28.374Z,4.63
2023-03-26T23:44:56.598Z,4.53
2023-03-26T23:47:23.135Z,4.50
2023-03-26T23:49:49.865Z,5.70
2023-03-26T23:52:16.597Z,5.30
2023-03-26T23:54:43.067Z,5.20
2023-03-26T23:57:10.502Z,6.17
2023-03-26T23:59:37.086Z,7.97
